createdAt,value
2023-04-23T00:01:29.501Z,13.02
2023-04-23T00:04:01.950Z,18.25
2023-04-23T00:06:34.261Z,19.90
2023-04-23T00:09:05.570Z,15.90
2023-04-23T00:11:36.393Z,14.43
2023-04-23T00:14:07.138Z,18.20
2023-04-23T00:16:37.785Z,23.27
2023-04-23T00:19:09.302Z,15.40
2023-04-23T00:21:39.973Z,14.82
2023-04-23T00:24:11.142Z,13.07
2023-04-23T00:26:41.517Z,13.40
2023-04-23T00:29:12.861Z,14.98
2023-04-23T00:31:43.325Z,16.13
2023-04-23T00:34:13.692Z,11.77
2023-04-23T00:36:45.202Z,15.55
2023-04-23T00:39:15.625Z,17.67
2023-04-23T00:41:46.247Z,13.30
2023-04-23T00:44:17.446Z,15.63
2023-04-23T00:46:49.023Z,16.80
2023-04-23T00:49:21.011Z,14.13
2023-04-23T00:51:51.999Z,12.93
2023-04-23T00:54:23.563Z,18.15
2023-04-23T00:56:55.076Z,19.15
2023-04-23T00:59:26.645Z,22.20
2023-04-23T01:01:59.664Z,18.85
2023-04-23T01:04:32.132Z,13.77
2023-04-23T01:09:34.079Z,15.90
2023-04-23T01:12:07.524Z,12.25
2023-04-23T01:14:40.008Z,14.05
2023-04-23T01:17:10.844Z,15.80
2023-04-23T01:19:42.130Z,20.35
2023-04-23T01:22:15.082Z,16.85
2023-04-23T01:24:45.733Z,16.10
2023-04-23T01:27:17.635Z,18.70
2023-04-23T01:29:49.896Z,17.42
2023-04-23T01:34:52.955Z,16.60
2023-04-23T01:37:25.350Z,15.82
2023-04-23T01:39:56.104Z,20.17
2023-04-23T01:42:26.320Z,20.25
2023-04-23T01:44:57.087Z,19.13
2023-04-23T01:47:28.223Z,18.45
2023-04-23T01:49:59.044Z,15.27
2023-04-23T01:52:30.202Z,18.25
2023-04-23T01:55:00.977Z,15.40
2023-04-23T01:57:31.454Z,17.80
2023-04-23T02:00:12.718Z,17.15
2023-04-23T02:02:44.979Z,19.75
2023-04-23T02:05:19.935Z,16.10
2023-04-23T02:07:52.405Z,14.68
2023-04-23T02:10:22.958Z,24.77
2023-04-23T02:12:54.035Z,14.65
2023-04-23T02:15:24.833Z,19.00
2023-04-23T02:17:55.486Z,19.42
2023-04-23T02:20:26.756Z,31.00
2023-04-23T02:22:58.332Z,18.70
2023-04-23T02:25:29.387Z,16.80
2023-04-23T02:28:01.306Z,16.35
2023-04-23T02:30:31.657Z,17.27
2023-04-23T02:33:02.311Z,12.50
2023-04-23T02:35:33.078Z,16.48
2023-04-23T02:38:03.682Z,15.88
2023-04-23T02:40:34.833Z,13.60
2023-04-23T02:43:05.295Z,20.38
2023-04-23T02:45:36.636Z,17.90
2023-04-23T02:48:07.242Z,15.73
2023-04-23T02:50:37.903Z,16.77
2023-04-23T02:53:08.335Z,12.50
2023-04-23T02:55:39.032Z,16.75
2023-04-23T02:58:09.552Z,15.68
2023-04-23T03:00:41.346Z,12.00
2023-04-23T03:03:12.827Z,13.88
2023-04-23T03:05:43.538Z,14.20
2023-04-23T03:08:13.921Z,14.27
2023-04-23T03:10:44.269Z,13.35
2023-04-23T03:13:15.042Z,16.60
2023-04-23T03:15:45.681Z,11.13
2023-04-23T03:18:16.127Z,19.48
2023-04-23T03:20:49.269Z,13.10
2023-04-23T03:23:20.994Z,12.97
2023-04-23T03:25:51.872Z,12.43
2023-04-23T03:28:22.597Z,18.58
2023-04-23T03:30:53.129Z,13.93
2023-04-23T03:33:23.715Z,11.93
2023-04-23T03:35:54.439Z,14.15
2023-04-23T03:38:30.584Z,12.73
2023-04-23T03:41:02.416Z,13.60
2023-04-23T03:43:32.829Z,8.50
2023-04-23T03:46:08.101Z,13.60
2023-04-23T03:48:42.244Z,15.80
2023-04-23T03:51:19.822Z,13.70
2023-04-23T03:53:53.415Z,13.88
2023-04-23T03:56:41.730Z,12.25
2023-04-23T03:59:15.514Z,13.90
2023-04-23T04:01:47.797Z,11.17
2023-04-23T04:04:18.940Z,12.23
2023-04-23T04:06:51.513Z,13.18
2023-04-23T04:09:22.186Z,11.57
2023-04-23T04:11:53.420Z,9.65
2023-04-23T04:14:25.029Z,9.75
2023-04-23T04:16:56.377Z,12.27
2023-04-23T04:19:27.231Z,15.73
2023-04-23T04:21:58.153Z,13.15
2023-04-23T04:24:28.874Z,10.77
2023-04-23T04:27:00.074Z,9.10
2023-04-23T04:29:30.593Z,10.23
2023-04-23T04:32:01.915Z,10.95
2023-04-23T04:34:32.506Z,11.75
2023-04-23T04:37:02.897Z,6.88
2023-04-23T04:39:33.295Z,8.85
2023-04-23T04:42:04.522Z,13.63
2023-04-23T04:44:34.902Z,13.18
2023-04-23T04:47:05.699Z,9.88
2023-04-23T04:49:36.361Z,7.30
2023-04-23T04:52:06.690Z,12.25
2023-04-23T04:54:37.320Z,12.07
2023-04-23T04:57:08.015Z,10.75
2023-04-23T04:59:38.442Z,11.48
2023-04-23T05:02:09.194Z,21.67
2023-04-23T05:04:39.842Z,10.88
2023-04-23T05:07:11.243Z,14.10
2023-04-23T05:09:42.936Z,9.98
2023-04-23T05:12:15.059Z,10.88
2023-04-23T05:14:45.422Z,10.88
2023-04-23T05:17:15.958Z,8.45
2023-04-23T05:19:46.315Z,11.45
2023-04-23T05:22:19.044Z,9.48
2023-04-23T05:24:49.505Z,5.97
2023-04-23T05:27:20.215Z,14.88
2023-04-23T05:29:50.460Z,13.38
2023-04-23T05:32:20.962Z,9.45
2023-04-23T05:34:51.567Z,9.07
2023-04-23T05:37:22.398Z,10.98
2023-04-23T05:39:53.236Z,8.57
2023-04-23T05:42:23.959Z,12.02
2023-04-23T05:44:54.544Z,12.77
2023-04-23T05:47:24.740Z,8.75
2023-04-23T05:49:55.353Z,9.45
2023-04-23T05:52:26.668Z,7.57
2023-04-23T05:54:56.957Z,11.57
2023-04-23T05:57:27.997Z,8.38
2023-04-23T05:59:58.256Z,10.30
2023-04-23T06:02:30.246Z,8.27
2023-04-23T06:05:01.880Z,8.43
2023-04-23T06:07:32.572Z,8.40
2023-04-23T06:10:03.549Z,11.43
2023-04-23T06:12:34.282Z,8.50
2023-04-23T06:15:04.636Z,7.40
2023-04-23T06:17:35.089Z,10.13
2023-04-23T06:20:06.637Z,9.77
2023-04-23T06:22:37.185Z,7.40
2023-04-23T06:25:08.957Z,8.45
2023-04-23T06:27:39.486Z,7.75
2023-04-23T06:30:17.409Z,8.35
2023-04-23T06:32:48.929Z,6.72
2023-04-23T06:35:19.287Z,6.47
2023-04-23T06:37:49.870Z,7.13
2023-04-23T06:40:20.281Z,11.20
2023-04-23T06:42:50.936Z,8.57
2023-04-23T06:45:36.736Z,5.10
2023-04-23T06:48:07.260Z,7.22
2023-04-23T06:50:38.250Z,9.50
2023-04-23T06:53:08.909Z,9.60
2023-04-23T06:55:39.511Z,7.90
2023-04-23T06:58:09.891Z,7.78
2023-04-23T07:00:41.112Z,9.20
2023-04-23T07:03:12.264Z,7.50
2023-04-23T07:05:43.093Z,6.43
2023-04-23T07:08:13.649Z,7.95
2023-04-23T07:10:44.281Z,7.28
2023-04-23T07:13:14.803Z,7.93
2023-04-23T07:15:45.592Z,8.63
2023-04-23T07:18:16.109Z,10.88
2023-04-23T07:20:46.500Z,7.45
2023-04-23T07:23:16.975Z,9.52
2023-04-23T07:25:47.298Z,7.65
2023-04-23T07:28:17.869Z,5.00
2023-04-23T07:30:48.334Z,8.68
2023-04-23T07:33:18.851Z,8.50
2023-04-23T07:35:49.235Z,10.70
2023-04-23T07:38:19.618Z,5.25
2023-04-23T07:40:50.351Z,7.70
2023-04-23T07:43:20.626Z,6.80
2023-04-23T07:45:51.226Z,8.68
2023-04-23T07:48:22.132Z,5.35
2023-04-23T07:50:52.780Z,6.30
2023-04-23T07:53:23.804Z,6.55
2023-04-23T07:55:54.369Z,5.55
2023-04-23T07:58:28.550Z,6.88
2023-04-23T08:00:59.267Z,7.18
2023-04-23T08:03:31.116Z,7.85
2023-04-23T08:06:01.575Z,7.90
2023-04-23T08:08:32.018Z,7.22
2023-04-23T08:11:03.708Z,7.60
2023-04-23T08:13:34.281Z,7.30
2023-04-23T08:16:04.806Z,6.68
2023-04-23T08:18:35.107Z,6.50
2023-04-23T08:21:05.657Z,10.77
2023-04-23T08:23:36.235Z,7.25
2023-04-23T08:26:06.646Z,9.00
2023-04-23T08:28:37.519Z,12.95
2023-04-23T08:31:18.874Z,13.40
2023-04-23T08:33:56.193Z,8.45
2023-04-23T08:36:28.295Z,7.25
2023-04-23T08:38:58.644Z,12.68
2023-04-23T08:41:37.377Z,8.30
2023-04-23T08:44:27.421Z,7.63
2023-04-23T08:47:00.319Z,12.73
2023-04-23T08:49:37.168Z,5.45
2023-04-23T08:52:27.610Z,9.85
2023-04-23T08:55:07.366Z,8.38
2023-04-23T08:57:39.056Z,6.70
2023-04-23T09:00:14.008Z,12.10
2023-04-23T09:02:46.490Z,7.97
2023-04-23T09:05:18.064Z,10.57
2023-04-23T09:07:48.549Z,6.80
2023-04-23T09:10:18.909Z,7.78
2023-04-23T09:12:50.624Z,6.82
2023-04-23T09:15:21.265Z,8.70
2023-04-23T09:17:52.441Z,8.13
2023-04-23T09:20:23.298Z,6.85
2023-04-23T09:22:55.305Z,6.00
2023-04-23T09:25:27.918Z,10.10
2023-04-23T09:28:01.556Z,7.75
2023-04-23T09:30:32.892Z,9.70
2023-04-23T09:33:03.233Z,7.68
2023-04-23T09:35:39.026Z,6.68
2023-04-23T09:38:12.119Z,8.73
2023-04-23T09:40:43.274Z,11.45
2023-04-23T09:43:14.118Z,5.70
2023-04-23T09:45:54.403Z,8.30
2023-04-23T09:48:24.797Z,8.23
2023-04-23T09:50:57.500Z,9.70
2023-04-23T09:53:28.988Z,8.07
2023-04-23T09:55:59.206Z,7.18
2023-04-23T09:58:29.851Z,5.45
2023-04-23T10:01:11.748Z,10.18
2023-04-23T10:03:45.874Z,10.07
2023-04-23T10:06:25.727Z,9.80
2023-04-23T10:09:07.747Z,10.00
2023-04-23T10:11:38.997Z,6.60
2023-04-23T10:14:10.765Z,16.05
2023-04-23T10:16:49.050Z,7.45
2023-04-23T10:19:25.375Z,7.60
2023-04-23T10:22:18.222Z,11.25
2023-04-23T10:24:57.415Z,9.63
2023-04-23T10:27:40.209Z,11.40
2023-04-23T10:30:20.013Z,6.80
2023-04-23T10:32:52.074Z,8.50
2023-04-23T10:35:22.536Z,10.00
2023-04-23T10:37:53.169Z,9.00
2023-04-23T10:40:31.936Z,8.95
2023-04-23T10:43:03.089Z,7.68
2023-04-23T10:45:34.500Z,7.40
2023-04-23T10:48:06.097Z,7.43
2023-04-23T10:50:47.731Z,7.95
2023-04-23T10:53:28.778Z,10.27
2023-04-23T10:56:09.303Z,9.60
2023-04-23T10:58:53.324Z,10.88
2023-04-23T11:01:33.126Z,7.47
2023-04-23T11:04:25.956Z,8.63
2023-04-23T11:06:58.664Z,9.65
2023-04-23T11:09:34.763Z,6.30
2023-04-23T11:12:08.429Z,6.85
2023-04-23T11:14:48.100Z,7.80
2023-04-23T11:17:20.665Z,6.95
2023-04-23T11:20:14.964Z,5.90
2023-04-23T11:22:47.056Z,8.20
2023-04-23T11:25:24.076Z,7.18
2023-04-23T11:27:56.801Z,7.20
2023-04-23T11:30:29.562Z,6.50
2023-04-23T11:33:02.908Z,7.15
2023-04-23T11:35:41.125Z,8.15
2023-04-23T11:38:12.648Z,4.90
2023-04-23T11:40:44.373Z,9.65
2023-04-23T11:43:22.439Z,5.57
2023-04-23T11:45:52.933Z,6.72
2023-04-23T11:48:23.227Z,6.80
2023-04-23T11:50:55.237Z,4.68
2023-04-23T11:53:26.474Z,5.40
2023-04-23T11:55:56.944Z,8.50
2023-04-23T11:58:27.416Z,7.10
2023-04-23T12:01:02.133Z,6.85
2023-04-23T12:03:32.683Z,6.40
2023-04-23T12:06:04.504Z,7.40
2023-04-23T12:08:38.977Z,7.05
2023-04-23T12:11:09.579Z,8.57
2023-04-23T12:13:44.327Z,7.50
2023-04-23T12:16:14.712Z,6.95
2023-04-23T12:18:45.833Z,7.63
2023-04-23T12:21:20.342Z,8.27
2023-04-23T12:23:54.167Z,5.85
2023-04-23T12:26:26.493Z,7.82
2023-04-23T12:29:00.657Z,7.88
2023-04-23T12:31:32.506Z,5.78
2023-04-23T12:34:10.854Z,7.30
2023-04-23T12:36:42.641Z,7.18
2023-04-23T12:39:33.494Z,9.25
2023-04-23T12:42:09.734Z,6.28
2023-04-23T12:44:41.199Z,5.80
2023-04-23T12:47:13.155Z,7.95
2023-04-23T12:49:45.381Z,9.05
2023-04-23T12:52:16.567Z,6.88
2023-04-23T12:54:47.049Z,5.30
2023-04-23T12:57:18.665Z,7.43
2023-04-23T12:59:50.869Z,7.97
2023-04-23T13:02:22.381Z,7.85
2023-04-23T13:04:53.481Z,7.28
2023-04-23T13:07:24.032Z,7.50
2023-04-23T13:09:54.558Z,5.90
2023-04-23T13:12:25.619Z,7.45
2023-04-23T13:14:56.101Z,7.38
2023-04-23T13:17:27.963Z,5.82
2023-04-23T13:19:58.761Z,7.82
2023-04-23T13:22:32.012Z,6.57
2023-04-23T13:25:02.378Z,6.22
2023-04-23T13:27:33.730Z,6.20
2023-04-23T13:30:04.817Z,5.15
2023-04-23T13:32:35.439Z,7.28
2023-04-23T13:35:06.608Z,6.30
2023-04-23T13:37:38.492Z,5.63
2023-04-23T13:40:09.407Z,5.13
2023-04-23T13:42:40.136Z,7.20
2023-04-23T13:45:12.530Z,7.93
2023-04-23T13:47:44.110Z,7.57
2023-04-23T13:50:15.098Z,8.20
2023-04-23T13:52:45.658Z,7.90
2023-04-23T13:55:16.499Z,5.93
2023-04-23T13:57:46.933Z,7.32
2023-04-23T14:02:53.325Z,8.43
2023-04-23T14:05:24.044Z,7.50
2023-04-23T14:07:54.580Z,8.00
2023-04-23T14:10:25.205Z,6.82
2023-04-23T14:12:57.129Z,4.40
2023-04-23T14:15:27.716Z,7.28
2023-04-23T14:17:58.053Z,7.55
2023-04-23T14:20:28.452Z,6.10
2023-04-23T14:23:04.097Z,7.68
2023-04-23T14:25:43.238Z,6.68
2023-04-23T14:28:37.661Z,6.38
2023-04-23T14:31:09.115Z,9.48
2023-04-23T14:33:39.645Z,7.28
2023-04-23T14:36:10.229Z,8.32
2023-04-23T14:38:40.751Z,8.10
2023-04-23T14:41:11.790Z,6.32
2023-04-23T14:43:42.120Z,6.97
2023-04-23T14:46:12.410Z,6.93
2023-04-23T14:48:42.932Z,8.88
2023-04-23T14:51:13.348Z,7.00
2023-04-23T14:53:43.803Z,8.38
2023-04-23T14:56:14.298Z,7.45
2023-04-23T14:58:44.794Z,7.15
2023-04-23T15:01:15.491Z,6.15
2023-04-23T15:03:47.355Z,5.55
2023-04-23T15:06:17.880Z,9.65
2023-04-23T15:08:48.605Z,8.85
2023-04-23T15:11:19.216Z,6.97
2023-04-23T15:13:53.461Z,7.68
2023-04-23T15:16:48.162Z,8.77
2023-04-23T15:19:20.824Z,5.15
2023-04-23T15:21:51.500Z,7.13
2023-04-23T15:24:22.439Z,7.65
2023-04-23T15:26:54.831Z,6.32
2023-04-23T15:29:25.870Z,8.02
2023-04-23T15:31:59.480Z,10.35
2023-04-23T15:34:30.016Z,9.35
2023-04-23T15:37:00.404Z,8.93
2023-04-23T15:39:31.699Z,7.07
2023-04-23T15:42:02.150Z,7.25
2023-04-23T15:44:33.461Z,8.85
2023-04-23T15:47:04.958Z,10.27
2023-04-23T15:49:35.423Z,8.75
2023-04-23T15:52:05.859Z,8.07
2023-04-23T15:54:36.670Z,6.43
2023-04-23T15:57:06.979Z,8.25
2023-04-23T15:59:37.873Z,6.82
2023-04-23T16:02:08.572Z,8.45
2023-04-23T16:04:39.638Z,8.02
2023-04-23T16:07:10.765Z,9.23
2023-04-23T16:09:41.419Z,6.68
2023-04-23T16:12:12.010Z,6.68
2023-04-23T16:14:44.132Z,7.20
2023-04-23T16:17:14.534Z,5.82
2023-04-23T16:19:45.359Z,9.23
2023-04-23T16:22:17.544Z,8.15
2023-04-23T16:24:48.044Z,9.03
2023-04-23T16:27:18.711Z,6.72
2023-04-23T16:29:49.515Z,8.45
2023-04-23T16:32:20.613Z,7.78
2023-04-23T16:34:50.950Z,10.93
2023-04-23T16:37:21.601Z,8.68
2023-04-23T16:39:51.997Z,11.88
2023-04-23T16:42:23.495Z,7.53
2023-04-23T16:44:54.563Z,9.07
2023-04-23T16:47:25.257Z,8.35
2023-04-23T16:49:55.730Z,7.82
2023-04-23T16:52:26.301Z,7.05
2023-04-23T16:54:57.551Z,7.15
2023-04-23T16:57:29.024Z,6.60
2023-04-23T16:59:59.370Z,7.25
2023-04-23T17:02:29.918Z,6.82
2023-04-23T17:05:00.434Z,7.72
2023-04-23T17:07:31.072Z,7.88
2023-04-23T17:10:01.672Z,7.82
2023-04-23T17:12:32.229Z,8.10
2023-04-23T17:15:02.757Z,8.20
2023-04-23T17:17:33.552Z,7.18
2023-04-23T17:20:05.400Z,8.68
2023-04-23T17:22:37.156Z,10.18
2023-04-23T17:25:07.963Z,6.72
2023-04-23T17:27:38.603Z,8.40
2023-04-23T17:30:09.872Z,8.70
2023-04-23T17:32:40.836Z,6.00
2023-04-23T17:35:11.521Z,10.20
2023-04-23T17:37:42.825Z,9.15
2023-04-23T17:40:13.358Z,9.20
2023-04-23T17:42:44.057Z,10.35
2023-04-23T17:45:14.576Z,7.07
2023-04-23T17:47:44.875Z,8.20
2023-04-23T17:50:15.793Z,8.50
2023-04-23T17:52:46.673Z,8.85
2023-04-23T17:55:17.073Z,9.25
2023-04-23T17:57:47.585Z,8.93
2023-04-23T18:00:19.224Z,7.78
2023-04-23T18:02:49.898Z,6.40
2023-04-23T18:05:20.689Z,7.22
2023-04-23T18:07:51.379Z,7.00
2023-04-23T18:10:22.726Z,8.35
2023-04-23T18:12:53.422Z,8.52
2023-04-23T18:15:24.208Z,8.18
2023-04-23T18:17:57.183Z,7.28
2023-04-23T18:20:28.226Z,7.88
2023-04-23T18:22:58.579Z,11.77
2023-04-23T18:25:28.818Z,7.63
2023-04-23T18:27:59.601Z,7.65
2023-04-23T18:30:30.258Z,10.13
2023-04-23T18:33:34.708Z,9.07
2023-04-23T18:36:12.406Z,6.90
2023-04-23T18:38:49.240Z,7.25
2023-04-23T18:41:19.714Z,7.45
2023-04-23T18:43:50.112Z,8.15
2023-04-23T18:46:21.529Z,8.18
2023-04-23T18:51:45.602Z,8.23
2023-04-23T18:54:16.566Z,8.52
2023-04-23T18:56:47.866Z,8.75
2023-04-23T18:59:18.493Z,7.28
2023-04-23T19:01:49.734Z,6.00
2023-04-23T19:04:20.265Z,8.48
2023-04-23T19:06:51.697Z,7.50
2023-04-23T19:09:21.924Z,6.95
2023-04-23T19:11:52.311Z,6.55
2023-04-23T19:14:22.685Z,8.98
2023-04-23T19:16:53.615Z,9.48
2023-04-23T19:19:25.842Z,7.10
2023-04-23T19:21:56.557Z,7.97
2023-04-23T19:24:26.982Z,10.15
2023-04-23T19:26:57.991Z,6.10
2023-04-23T19:29:28.383Z,7.07
2023-04-23T19:31:59.607Z,8.25
2023-04-23T19:34:29.766Z,8.30
2023-04-23T19:37:00.197Z,8.68
2023-04-23T19:39:30.606Z,7.15
2023-04-23T19:42:01.031Z,8.70
2023-04-23T19:44:31.898Z,7.43
2023-04-23T19:47:02.280Z,6.65
2023-04-23T19:49:33.467Z,6.28
2023-04-23T19:52:06.476Z,7.68
2023-04-23T19:54:36.879Z,8.63
2023-04-23T19:57:07.104Z,7.00
2023-04-23T19:59:37.658Z,9.15
2023-04-23T20:02:08.191Z,5.57
2023-04-23T20:04:38.860Z,7.88
2023-04-23T20:07:09.318Z,7.65
2023-04-23T20:09:39.922Z,7.50
2023-04-23T20:12:10.666Z,8.95
2023-04-23T20:14:41.063Z,7.38
2023-04-23T20:17:12.134Z,8.45
2023-04-23T20:19:42.879Z,9.15
2023-04-23T20:22:13.665Z,11.23
2023-04-23T20:24:47.832Z,7.50
2023-04-23T20:27:18.736Z,7.55
2023-04-23T20:29:49.904Z,8.93
2023-04-23T20:32:20.298Z,7.97
2023-04-23T20:34:50.715Z,12.52
2023-04-23T20:37:23.066Z,7.47
2023-04-23T20:39:53.860Z,7.15
2023-04-23T20:42:24.751Z,8.15
2023-04-23T20:44:54.923Z,8.00
2023-04-23T20:47:25.382Z,8.52
2023-04-23T20:49:55.860Z,9.30
2023-04-23T20:52:26.421Z,7.13
2023-04-23T20:54:56.879Z,9.00
2023-04-23T20:57:30.273Z,8.50
2023-04-23T21:00:00.710Z,7.55
2023-04-23T21:02:31.476Z,8.43
2023-04-23T21:05:02.280Z,8.10
2023-04-23T21:07:33.269Z,6.50
2023-04-23T21:10:04.546Z,9.45
2023-04-23T21:12:35.394Z,8.80
2023-04-23T21:15:06.701Z,7.70
2023-04-23T21:17:37.158Z,8.05
2023-04-23T21:20:09.553Z,9.65
2023-04-23T21:25:11.962Z,6.95
2023-04-23T21:27:47.923Z,10.57
2023-04-23T21:30:40.865Z,7.13
2023-04-23T21:33:11.746Z,10.53
2023-04-23T21:35:41.961Z,10.50
2023-04-23T21:38:13.709Z,9.63
2023-04-23T21:40:44.066Z,11.80
2023-04-23T21:43:14.845Z,8.48
2023-04-23T21:45:45.252Z,7.25
2023-04-23T21:48:16.507Z,9.52
2023-04-23T21:50:46.961Z,7.05
2023-04-23T21:53:17.594Z,7.70
2023-04-23T21:55:47.833Z,8.23
2023-04-23T21:58:18.760Z,13.18
2023-04-23T22:00:50.402Z,8.60
2023-04-23T22:03:32.936Z,11.32
2023-04-23T22:06:11.234Z,9.80
2023-04-23T22:08:42.434Z,11.95
2023-04-23T22:11:12.961Z,7.75
2023-04-23T22:13:43.890Z,11.23
2023-04-23T22:16:24.917Z,10.15
2023-04-23T22:18:59.286Z,7.32
2023-04-23T22:21:29.882Z,7.72
2023-04-23T22:24:00.798Z,10.43
2023-04-23T22:26:31.377Z,8.05
2023-04-23T22:29:02.172Z,10.38
2023-04-23T22:31:32.558Z,9.82
2023-04-23T22:34:03.978Z,11.77
2023-04-23T22:36:34.515Z,10.55
2023-04-23T22:39:07.949Z,9.55
2023-04-23T22:41:40.495Z,10.63
2023-04-23T22:44:10.982Z,9.13
2023-04-23T22:46:41.938Z,11.38
2023-04-23T22:49:15.630Z,8.43
2023-04-23T22:51:46.815Z,9.80
2023-04-23T22:54:17.724Z,11.38
2023-04-23T22:56:48.210Z,10.38
2023-04-23T22:59:19.426Z,10.40
2023-04-23T23:01:50.265Z,11.02
2023-04-23T23:04:20.963Z,11.57
2023-04-23T23:06:51.814Z,9.43
2023-04-23T23:09:22.216Z,8.20
2023-04-23T23:11:52.626Z,9.30
2023-04-23T23:14:23.389Z,7.72
2023-04-23T23:16:55.029Z,9.38
2023-04-23T23:19:27.278Z,9.20
2023-04-23T23:21:58.090Z,8.70
2023-04-23T23:24:28.598Z,10.40
2023-04-23T23:26:58.992Z,8.25
2023-04-23T23:29:29.374Z,7.45
2023-04-23T23:32:00.397Z,7.80
2023-04-23T23:34:32.549Z,9.27
2023-04-23T23:37:02.916Z,10.77
2023-04-23T23:39:33.454Z,6.38
2023-04-23T23:42:04.337Z,9.57
2023-04-23T23:44:35.149Z,9.77
2023-04-23T23:47:06.118Z,12.02
2023-04-23T23:49:37.272Z,8.32
2023-04-23T23:52:08.080Z,8.98
2023-04-23T23:54:38.668Z,9.00
2023-04-23T23:57:09.874Z,6.63
2023-04-23T23:59:40.928Z,9.23
